sensor_id;sensor_type;location;lat;lon;timestamp;temperature;humidity
33139;DHT22;19501;50.948;5.316;2023-04-03T00:01:16;2.90;99.90
33139;DHT22;19501;50.948;5.316;2023-04-03T00:03:42;2.80;99.90
33139;DHT22;19501;50.948;5.316;2023-04-03T00:06:08;2.70;99.90
33139;DHT22;19501;50.948;5.316;2023-04-03T00:08:37;2.80;99.90
33139;DHT22;19501;50.948;5.316;2023-04-03T00:11:04;2.60;99.90
33139;DHT22;19501;50.948;5.316;2023-04-03T00:13:30;2.60;99.90
33139;DHT22;19501;50.948;5.316;2023-04-03T00:15:56;2.60;99.90
33139;DHT22;19501;50.948;5.316;2023-04-03T00:18:22;2.70;99.90
33139;DHT22;19501;50.948;5.316;2023-04-03T00:20:48;2.70;99.90
33139;DHT22;19501;50.948;5.316;2023-04-03T00:23:14;2.80;99.90
33139;DHT22;19501;50.948;5.316;2023-04-03T00:25:40;2.90;99.90
33139;DHT22;19501;50.948;5.316;2023-04-03T00:28:09;3.00;99.90
33139;DHT22;19501;50.948;5.316;2023-04-03T00:30:35;3.10;99.90
33139;DHT22;19501;50.948;5.316;2023-04-03T00:33:00;3.10;99.90
33139;DHT22;19501;50.948;5.316;2023-04-03T00:35:26;3.00;99.90
33139;DHT22;19501;50.948;5.316;2023-04-03T00:37:53;3.00;99.90
33139;DHT22;19501;50.948;5.316;2023-04-03T00:40:22;2.90;99.90
33139;DHT22;19501;50.948;5.316;2023-04-03T00:42:51;2.90;99.90
33139;DHT22;19501;50.948;5.316;2023-04-03T00:45:23;2.80;99.90
33139;DHT22;19501;50.948;5.316;2023-04-03T00:47:49;2.80;99.90
33139;DHT22;19501;50.948;5.316;2023-04-03T00:50:17;2.70;99.90
33139;DHT22;19501;50.948;5.316;2023-04-03T00:52:43;2.70;99.90
33139;DHT22;19501;50.948;5.316;2023-04-03T00:55:12;2.80;99.90
33139;DHT22;19501;50.948;5.316;2023-04-03T00:57:42;2.80;99.90
33139;DHT22;19501;50.948;5.316;2023-04-03T01:00:11;2.90;99.90
33139;DHT22;19501;50.948;5.316;2023-04-03T01:02:38;2.80;99.90
33139;DHT22;19501;50.948;5.316;2023-04-03T01:05:06;2.70;99.90
33139;DHT22;19501;50.948;5.316;2023-04-03T01:07:32;2.70;99.90
33139;DHT22;19501;50.948;5.316;2023-04-03T01:10:02;2.50;99.90
33139;DHT22;19501;50.948;5.316;2023-04-03T01:12:31;2.40;99.90
33139;DHT22;19501;50.948;5.316;2023-04-03T01:28:07;2.00;99.90
33139;DHT22;19501;50.948;5.316;2023-04-03T01:30:39;1.90;99.90
33139;DHT22;19501;50.948;5.316;2023-04-03T01:33:06;1.80;99.90
33139;DHT22;19501;50.948;5.316;2023-04-03T01:35:32;1.80;99.90
33139;DHT22;19501;50.948;5.316;2023-04-03T01:37:58;1.80;99.90
33139;DHT22;19501;50.948;5.316;2023-04-03T01:40:23;1.80;99.90
33139;DHT22;19501;50.948;5.316;2023-04-03T01:42:49;1.80;99.90
33139;DHT22;19501;50.948;5.316;2023-04-03T01:45:15;1.70;99.90
33139;DHT22;19501;50.948;5.316;2023-04-03T01:47:40;1.70;99.90
33139;DHT22;19501;50.948;5.316;2023-04-03T01:50:06;1.60;99.90
33139;DHT22;19501;50.948;5.316;2023-04-03T01:52:32;1.60;99.90
33139;DHT22;19501;50.948;5.316;2023-04-03T01:54:57;1.50;99.90
33139;DHT22;19501;50.948;5.316;2023-04-03T01:57:23;1.50;99.90
33139;DHT22;19501;50.948;5.316;2023-04-03T01:59:49;1.50;99.90
33139;DHT22;19501;50.948;5.316;2023-04-03T02:02:17;1.40;99.90
33139;DHT22;19501;50.948;5.316;2023-04-03T02:04:47;1.30;99.90
33139;DHT22;19501;50.948;5.316;2023-04-03T02:07:12;1.30;99.90
33139;DHT22;19501;50.948;5.316;2023-04-03T02:09:38;1.40;99.90
33139;DHT22;19501;50.948;5.316;2023-04-03T02:12:04;1.30;99.90
33139;DHT22;19501;50.948;5.316;2023-04-03T02:14:29;1.30;99.90
33139;DHT22;19501;50.948;5.316;2023-04-03T02:16:55;1.30;99.90
33139;DHT22;19501;50.948;5.316;2023-04-03T02:19:21;1.20;99.90
33139;DHT22;19501;50.948;5.316;2023-04-03T02:21:47;1.20;99.90
33139;DHT22;19501;50.948;5.316;2023-04-03T02:24:12;1.10;99.90
33139;DHT22;19501;50.948;5.316;2023-04-03T02:26:38;1.10;99.90
33139;DHT22;19501;50.948;5.316;2023-04-03T02:29:03;1.00;99.90
33139;DHT22;19501;50.948;5.316;2023-04-03T02:31:29;0.90;99.90
33139;DHT22;19501;50.948;5.316;2023-04-03T02:33:55;0.90;99.90
33139;DHT22;19501;50.948;5.316;2023-04-03T02:36:21;0.80;99.90
33139;DHT22;19501;50.948;5.316;2023-04-03T02:38:46;0.90;99.90
33139;DHT22;19501;50.948;5.316;2023-04-03T02:41:13;1.00;99.90
33139;DHT22;19501;50.948;5.316;2023-04-03T02:43:39;1.00;99.90
33139;DHT22;19501;50.948;5.316;2023-04-03T02:46:05;1.00;99.90
33139;DHT22;19501;50.948;5.316;2023-04-03T02:48:31;1.10;99.90
33139;DHT22;19501;50.948;5.316;2023-04-03T02:50:57;0.90;99.90
33139;DHT22;19501;50.948;5.316;2023-04-03T02:53:23;0.80;99.90
33139;DHT22;19501;50.948;5.316;2023-04-03T02:55:48;0.70;99.90
33139;DHT22;19501;50.948;5.316;2023-04-03T02:58:14;0.70;99.90
33139;DHT22;19501;50.948;5.316;2023-04-03T03:00:40;0.80;99.90
33139;DHT22;19501;50.948;5.316;2023-04-03T03:03:06;0.60;99.90
33139;DHT22;19501;50.948;5.316;2023-04-03T03:05:32;0.60;99.90
33139;DHT22;19501;50.948;5.316;2023-04-03T03:07:58;0.60;99.90
33139;DHT22;19501;50.948;5.316;2023-04-03T03:10:23;0.70;99.90
33139;DHT22;19501;50.948;5.316;2023-04-03T03:12:52;0.70;99.90
33139;DHT22;19501;50.948;5.316;2023-04-03T03:15:20;0.60;99.90
33139;DHT22;19501;50.948;5.316;2023-04-03T03:17:46;0.60;99.90
33139;DHT22;19501;50.948;5.316;2023-04-03T03:20:12;0.40;99.90
33139;DHT22;19501;50.948;5.316;2023-04-03T03:22:40;0.40;99.90
33139;DHT22;19501;50.948;5.316;2023-04-03T03:25:06;0.40;99.90
33139;DHT22;19501;50.948;5.316;2023-04-03T03:27:32;0.50;99.90
33139;DHT22;19501;50.948;5.316;2023-04-03T03:29:58;0.70;99.90
33139;DHT22;19501;50.948;5.316;2023-04-03T03:32:23;0.60;99.90
33139;DHT22;19501;50.948;5.316;2023-04-03T03:34:49;0.70;99.90
33139;DHT22;19501;50.948;5.316;2023-04-03T03:37:15;0.70;99.90
33139;DHT22;19501;50.948;5.316;2023-04-03T03:39:40;0.70;99.90
33139;DHT22;19501;50.948;5.316;2023-04-03T03:42:06;0.70;99.90
33139;DHT22;19501;50.948;5.316;2023-04-03T03:44:32;0.60;99.90
33139;DHT22;19501;50.948;5.316;2023-04-03T03:46:57;0.50;99.90
33139;DHT22;19501;50.948;5.316;2023-04-03T03:49:23;0.60;99.90
33139;DHT22;19501;50.948;5.316;2023-04-03T03:51:48;0.80;99.90
33139;DHT22;19501;50.948;5.316;2023-04-03T03:54:15;0.60;99.90
33139;DHT22;19501;50.948;5.316;2023-04-03T03:56:40;0.70;99.90
33139;DHT22;19501;50.948;5.316;2023-04-03T03:59:06;0.60;99.90
33139;DHT22;19501;50.948;5.316;2023-04-03T04:01:34;0.60;99.90
33139;DHT22;19501;50.948;5.316;2023-04-03T04:04:00;0.60;99.90
33139;DHT22;19501;50.948;5.316;2023-04-03T04:06:26;0.50;99.90
33139;DHT22;19501;50.948;5.316;2023-04-03T04:08:51;0.50;99.90
33139;DHT22;19501;50.948;5.316;2023-04-03T04:11:17;0.60;99.90
33139;DHT22;19501;50.948;5.316;2023-04-03T04:13:45;0.50;99.90
33139;DHT22;19501;50.948;5.316;2023-04-03T04:16:11;0.50;99.90
33139;DHT22;19501;50.948;5.316;2023-04-03T04:18:37;0.40;99.90
33139;DHT22;19501;50.948;5.316;2023-04-03T04:21:02;0.30;99.90
33139;DHT22;19501;50.948;5.316;2023-04-03T04:23:28;0.30;99.90
33139;DHT22;19501;50.948;5.316;2023-04-03T04:25:54;0.40;99.90
33139;DHT22;19501;50.948;5.316;2023-04-03T04:28:20;0.50;99.90
33139;DHT22;19501;50.948;5.316;2023-04-03T04:30:45;0.50;99.90
33139;DHT22;19501;50.948;5.316;2023-04-03T04:33:11;0.40;99.90
33139;DHT22;19501;50.948;5.316;2023-04-03T04:35:37;0.40;99.90
33139;DHT22;19501;50.948;5.316;2023-04-03T04:38:02;0.50;99.90
33139;DHT22;19501;50.948;5.316;2023-04-03T04:40:28;0.60;99.90
33139;DHT22;19501;50.948;5.316;2023-04-03T04:42:54;0.70;99.90
33139;DHT22;19501;50.948;5.316;2023-04-03T04:45:20;0.90;99.90
33139;DHT22;19501;50.948;5.316;2023-04-03T04:47:46;1.00;99.90
33139;DHT22;19501;50.948;5.316;2023-04-03T04:50:12;0.90;99.90
33139;DHT22;19501;50.948;5.316;2023-04-03T04:52:38;0.80;99.90
33139;DHT22;19501;50.948;5.316;2023-04-03T04:55:04;0.70;99.90
33139;DHT22;19501;50.948;5.316;2023-04-03T04:57:33;0.80;99.90
33139;DHT22;19501;50.948;5.316;2023-04-03T04:59:58;0.80;99.90
33139;DHT22;19501;50.948;5.316;2023-04-03T05:02:25;0.80;99.90
33139;DHT22;19501;50.948;5.316;2023-04-03T05:04:51;0.80;99.90
33139;DHT22;19501;50.948;5.316;2023-04-03T05:07:17;0.90;99.90
33139;DHT22;19501;50.948;5.316;2023-04-03T05:09:43;0.90;99.90
33139;DHT22;19501;50.948;5.316;2023-04-03T05:12:08;0.80;99.90
33139;DHT22;19501;50.948;5.316;2023-04-03T05:14:34;0.80;99.90
33139;DHT22;19501;50.948;5.316;2023-04-03T05:17:00;0.90;99.90
33139;DHT22;19501;50.948;5.316;2023-04-03T05:19:26;0.70;99.90
33139;DHT22;19501;50.948;5.316;2023-04-03T05:21:51;0.70;99.90
33139;DHT22;19501;50.948;5.316;2023-04-03T05:24:17;0.70;99.90
33139;DHT22;19501;50.948;5.316;2023-04-03T05:26:43;0.60;99.90
33139;DHT22;19501;50.948;5.316;2023-04-03T05:29:09;0.80;99.90
33139;DHT22;19501;50.948;5.316;2023-04-03T05:31:35;0.90;99.90
33139;DHT22;19501;50.948;5.316;2023-04-03T05:34:02;1.10;99.90
33139;DHT22;19501;50.948;5.316;2023-04-03T05:36:27;1.20;99.90
33139;DHT22;19501;50.948;5.316;2023-04-03T05:38:53;1.30;99.90
33139;DHT22;19501;50.948;5.316;2023-04-03T05:41:22;1.40;99.90
33139;DHT22;19501;50.948;5.316;2023-04-03T05:43:48;1.40;99.90
33139;DHT22;19501;50.948;5.316;2023-04-03T05:46:18;1.40;99.90
33139;DHT22;19501;50.948;5.316;2023-04-03T05:48:44;1.50;99.90
33139;DHT22;19501;50.948;5.316;2023-04-03T05:51:19;1.60;99.90
33139;DHT22;19501;50.948;5.316;2023-04-03T05:53:46;1.70;99.90
33139;DHT22;19501;50.948;5.316;2023-04-03T05:56:13;1.80;99.90
33139;DHT22;19501;50.948;5.316;2023-04-03T05:58:39;1.80;99.90
33139;DHT22;19501;50.948;5.316;2023-04-03T06:01:05;1.80;99.90
33139;DHT22;19501;50.948;5.316;2023-04-03T06:03:31;1.80;99.90
33139;DHT22;19501;50.948;5.316;2023-04-03T06:05:57;1.90;99.90
33139;DHT22;19501;50.948;5.316;2023-04-03T06:08:22;2.00;99.90
33139;DHT22;19501;50.948;5.316;2023-04-03T06:10:49;2.00;99.90
33139;DHT22;19501;50.948;5.316;2023-04-03T06:13:16;2.10;99.90
33139;DHT22;19501;50.948;5.316;2023-04-03T06:15:42;2.10;99.90
33139;DHT22;19501;50.948;5.316;2023-04-03T06:18:07;2.30;99.90
33139;DHT22;19501;50.948;5.316;2023-04-03T06:20:33;2.20;99.90
33139;DHT22;19501;50.948;5.316;2023-04-03T06:22:59;2.20;99.90
33139;DHT22;19501;50.948;5.316;2023-04-03T06:25:25;2.40;99.90
33139;DHT22;19501;50.948;5.316;2023-04-03T06:27:52;2.40;99.90
33139;DHT22;19501;50.948;5.316;2023-04-03T06:30:17;2.40;99.90
33139;DHT22;19501;50.948;5.316;2023-04-03T06:32:43;2.50;99.90
33139;DHT22;19501;50.948;5.316;2023-04-03T06:35:09;2.60;99.90
33139;DHT22;19501;50.948;5.316;2023-04-03T06:37:34;2.70;99.90
33139;DHT22;19501;50.948;5.316;2023-04-03T06:40:03;2.70;99.90
33139;DHT22;19501;50.948;5.316;2023-04-03T06:42:30;2.90;99.90
33139;DHT22;19501;50.948;5.316;2023-04-03T06:44:55;3.00;99.90
33139;DHT22;19501;50.948;5.316;2023-04-03T06:47:24;3.00;99.90
33139;DHT22;19501;50.948;5.316;2023-04-03T06:49:49;3.10;99.90
33139;DHT22;19501;50.948;5.316;2023-04-03T06:52:15;3.20;99.90
33139;DHT22;19501;50.948;5.316;2023-04-03T06:54:41;3.30;99.90
33139;DHT22;19501;50.948;5.316;2023-04-03T06:57:07;3.40;99.90
33139;DHT22;19501;50.948;5.316;2023-04-03T06:59:33;3.40;99.90
33139;DHT22;19501;50.948;5.316;2023-04-03T07:01:59;3.50;99.90
33139;DHT22;19501;50.948;5.316;2023-04-03T07:04:25;3.50;99.90
33139;DHT22;19501;50.948;5.316;2023-04-03T07:06:51;3.60;99.90
33139;DHT22;19501;50.948;5.316;2023-04-03T07:09:18;3.70;99.90
33139;DHT22;19501;50.948;5.316;2023-04-03T07:11:44;3.90;99.90
33139;DHT22;19501;50.948;5.316;2023-04-03T07:14:10;3.90;99.90
33139;DHT22;19501;50.948;5.316;2023-04-03T07:16:36;4.00;99.90
33139;DHT22;19501;50.948;5.316;2023-04-03T07:19:02;4.10;99.90
33139;DHT22;19501;50.948;5.316;2023-04-03T07:21:28;4.10;99.90
33139;DHT22;19501;50.948;5.316;2023-04-03T07:23:54;4.20;99.90
33139;DHT22;19501;50.948;5.316;2023-04-03T07:26:22;4.30;99.90
33139;DHT22;19501;50.948;5.316;2023-04-03T07:28:48;4.40;99.90
33139;DHT22;19501;50.948;5.316;2023-04-03T07:31:15;4.50;99.90
33139;DHT22;19501;50.948;5.316;2023-04-03T07:33:42;4.60;99.90
33139;DHT22;19501;50.948;5.316;2023-04-03T07:36:10;4.60;99.90
33139;DHT22;19501;50.948;5.316;2023-04-03T07:38:36;4.70;99.90
33139;DHT22;19501;50.948;5.316;2023-04-03T07:41:05;4.70;99.90
33139;DHT22;19501;50.948;5.316;2023-04-03T07:43:31;4.80;99.90
33139;DHT22;19501;50.948;5.316;2023-04-03T07:45:57;4.90;99.90
33139;DHT22;19501;50.948;5.316;2023-04-03T07:48:24;4.90;99.90
33139;DHT22;19501;50.948;5.316;2023-04-03T07:50:52;5.00;99.90
33139;DHT22;19501;50.948;5.316;2023-04-03T07:53:18;5.10;99.90
33139;DHT22;19501;50.948;5.316;2023-04-03T07:55:48;5.20;99.90
33139;DHT22;19501;50.948;5.316;2023-04-03T07:58:17;5.30;99.90
33139;DHT22;19501;50.948;5.316;2023-04-03T08:00:45;5.30;99.90
33139;DHT22;19501;50.948;5.316;2023-04-03T08:03:11;5.40;99.90
33139;DHT22;19501;50.948;5.316;2023-04-03T08:05:40;5.40;99.90
33139;DHT22;19501;50.948;5.316;2023-04-03T08:08:06;5.50;99.90
33139;DHT22;19501;50.948;5.316;2023-04-03T08:10:33;5.70;99.90
33139;DHT22;19501;50.948;5.316;2023-04-03T08:12:59;5.70;99.90
33139;DHT22;19501;50.948;5.316;2023-04-03T08:15:25;5.80;99.90
33139;DHT22;19501;50.948;5.316;2023-04-03T08:17:52;5.90;99.90
33139;DHT22;19501;50.948;5.316;2023-04-03T08:20:18;6.00;99.90
33139;DHT22;19501;50.948;5.316;2023-04-03T08:22:44;6.10;99.90
33139;DHT22;19501;50.948;5.316;2023-04-03T08:25:09;6.10;99.90
33139;DHT22;19501;50.948;5.316;2023-04-03T08:27:37;6.20;99.90
33139;DHT22;19501;50.948;5.316;2023-04-03T08:30:04;6.40;99.90
33139;DHT22;19501;50.948;5.316;2023-04-03T08:32:30;6.50;99.90
33139;DHT22;19501;50.948;5.316;2023-04-03T08:34:55;6.70;99.90
33139;DHT22;19501;50.948;5.316;2023-04-03T08:37:21;6.60;99.90
33139;DHT22;19501;50.948;5.316;2023-04-03T08:39:47;6.60;99.90
33139;DHT22;19501;50.948;5.316;2023-04-03T08:45:37;6.70;99.90
33139;DHT22;19501;50.948;5.316;2023-04-03T08:48:19;6.80;99.90
33139;DHT22;19501;50.948;5.316;2023-04-03T08:50:48;6.90;99.90
33139;DHT22;19501;50.948;5.316;2023-04-03T08:53:23;7.00;99.90
33139;DHT22;19501;50.948;5.316;2023-04-03T08:55:51;7.10;99.90
33139;DHT22;19501;50.948;5.316;2023-04-03T08:58:22;7.00;99.90
33139;DHT22;19501;50.948;5.316;2023-04-03T09:01:21;7.20;99.90
33139;DHT22;19501;50.948;5.316;2023-04-03T09:03:48;7.30;99.90
33139;DHT22;19501;50.948;5.316;2023-04-03T09:06:20;7.40;99.90
33139;DHT22;19501;50.948;5.316;2023-04-03T09:26:18;8.10;99.90
33139;DHT22;19501;50.948;5.316;2023-04-03T09:28:46;8.20;99.90
33139;DHT22;19501;50.948;5.316;2023-04-03T09:31:28;8.30;99.90
33139;DHT22;19501;50.948;5.316;2023-04-03T09:33:58;8.20;99.90
33139;DHT22;19501;50.948;5.316;2023-04-03T09:36:44;8.30;99.90
33139;DHT22;19501;50.948;5.316;2023-04-03T09:39:27;8.50;99.90
33139;DHT22;19501;50.948;5.316;2023-04-03T09:42:02;8.60;99.90
33139;DHT22;19501;50.948;5.316;2023-04-03T09:44:34;8.70;99.90
33139;DHT22;19501;50.948;5.316;2023-04-03T09:47:24;8.80;99.90
33139;DHT22;19501;50.948;5.316;2023-04-03T09:49:51;9.00;99.90
33139;DHT22;19501;50.948;5.316;2023-04-03T09:52:34;8.90;99.90
33139;DHT22;19501;50.948;5.316;2023-04-03T09:55:10;8.70;99.90
33139;DHT22;19501;50.948;5.316;2023-04-03T09:57:39;8.70;99.90
33139;DHT22;19501;50.948;5.316;2023-04-03T10:00:05;8.70;99.90
33139;DHT22;19501;50.948;5.316;2023-04-03T10:02:37;8.60;99.90
33139;DHT22;19501;50.948;5.316;2023-04-03T10:05:05;8.60;99.90
33139;DHT22;19501;50.948;5.316;2023-04-03T10:07:50;8.70;99.90
33139;DHT22;19501;50.948;5.316;2023-04-03T10:10:20;9.00;99.90
33139;DHT22;19501;50.948;5.316;2023-04-03T10:12:48;9.00;99.90
33139;DHT22;19501;50.948;5.316;2023-04-03T10:15:16;9.10;99.90
33139;DHT22;19501;50.948;5.316;2023-04-03T10:18:02;9.10;99.90
33139;DHT22;19501;50.948;5.316;2023-04-03T10:20:57;9.10;99.90
33139;DHT22;19501;50.948;5.316;2023-04-03T10:23:33;9.20;99.90
33139;DHT22;19501;50.948;5.316;2023-04-03T10:45:27;10.00;99.30
33139;DHT22;19501;50.948;5.316;2023-04-03T10:53:36;10.50;97.90
33139;DHT22;19501;50.948;5.316;2023-04-03T10:58:42;11.30;96.30
33139;DHT22;19501;50.948;5.316;2023-04-03T11:01:16;11.60;95.60
33139;DHT22;19501;50.948;5.316;2023-04-03T11:03:47;11.90;95.80
33139;DHT22;19501;50.948;5.316;2023-04-03T11:06:15;12.40;92.30
33139;DHT22;19501;50.948;5.316;2023-04-03T11:08:56;12.30;91.90
33139;DHT22;19501;50.948;5.316;2023-04-03T11:11:26;12.60;87.00
33139;DHT22;19501;50.948;5.316;2023-04-03T11:14:11;12.80;89.30
33139;DHT22;19501;50.948;5.316;2023-04-03T11:16:45;12.60;87.80
33139;DHT22;19501;50.948;5.316;2023-04-03T11:19:37;12.60;85.70
33139;DHT22;19501;50.948;5.316;2023-04-03T11:22:27;12.40;89.10
33139;DHT22;19501;50.948;5.316;2023-04-03T11:27:46;13.70;89.10
33139;DHT22;19501;50.948;5.316;2023-04-03T11:33:42;15.10;82.30
33139;DHT22;19501;50.948;5.316;2023-04-03T11:36:21;15.80;82.30
33139;DHT22;19501;50.948;5.316;2023-04-03T11:38:49;16.30;83.10
33139;DHT22;19501;50.948;5.316;2023-04-03T11:41:17;16.70;81.40
33139;DHT22;19501;50.948;5.316;2023-04-03T11:44:13;16.60;78.70
33139;DHT22;19501;50.948;5.316;2023-04-03T11:46:56;17.00;81.20
33139;DHT22;19501;50.948;5.316;2023-04-03T12:00:49;18.70;73.60
33139;DHT22;19501;50.948;5.316;2023-04-03T12:18:57;19.60;68.20
33139;DHT22;19501;50.948;5.316;2023-04-03T12:35:35;20.30;66.20
33139;DHT22;19501;50.948;5.316;2023-04-03T12:41:16;18.20;65.20
33139;DHT22;19501;50.948;5.316;2023-04-03T12:46:37;18.40;65.60
33139;DHT22;19501;50.948;5.316;2023-04-03T12:49:37;18.00;67.00
33139;DHT22;19501;50.948;5.316;2023-04-03T12:52:04;19.10;66.30
33139;DHT22;19501;50.948;5.316;2023-04-03T12:54:39;19.90;65.60
33139;DHT22;19501;50.948;5.316;2023-04-03T12:57:12;20.70;63.40
33139;DHT22;19501;50.948;5.316;2023-04-03T12:59:38;20.80;62.80
33139;DHT22;19501;50.948;5.316;2023-04-03T13:02:17;21.40;62.30
33139;DHT22;19501;50.948;5.316;2023-04-03T13:04:47;22.60;61.80
33139;DHT22;19501;50.948;5.316;2023-04-03T13:07:25;23.40;57.90
33139;DHT22;19501;50.948;5.316;2023-04-03T13:10:17;23.60;58.20
33139;DHT22;19501;50.948;5.316;2023-04-03T13:13:08;22.00;59.30
33139;DHT22;19501;50.948;5.316;2023-04-03T13:15:43;21.70;58.90
33139;DHT22;19501;50.948;5.316;2023-04-03T13:18:31;20.50;57.70
33139;DHT22;19501;50.948;5.316;2023-04-03T13:21:05;18.90;61.60
33139;DHT22;19501;50.948;5.316;2023-04-03T13:23:32;18.80;59.00
33139;DHT22;19501;50.948;5.316;2023-04-03T13:26:00;19.50;61.90
33139;DHT22;19501;50.948;5.316;2023-04-03T13:28:30;19.30;59.80
33139;DHT22;19501;50.948;5.316;2023-04-03T13:31:15;21.50;59.30
33139;DHT22;19501;50.948;5.316;2023-04-03T13:34:20;21.70;61.10
33139;DHT22;19501;50.948;5.316;2023-04-03T13:41:47;21.70;57.60
33139;DHT22;19501;50.948;5.316;2023-04-03T13:46:58;20.50;60.10
33139;DHT22;19501;50.948;5.316;2023-04-03T13:49:40;19.00;60.10
33139;DHT22;19501;50.948;5.316;2023-04-03T13:52:30;18.10;59.90
33139;DHT22;19501;50.948;5.316;2023-04-03T13:55:15;17.30;63.00
33139;DHT22;19501;50.948;5.316;2023-04-03T14:03:37;18.00;64.20
33139;DHT22;19501;50.948;5.316;2023-04-03T14:05:58;18.10;63.30
33139;DHT22;19501;50.948;5.316;2023-04-03T14:08:24;18.70;61.80
33139;DHT22;19501;50.948;5.316;2023-04-03T14:10:50;19.10;63.90
33139;DHT22;19501;50.948;5.316;2023-04-03T14:13:19;18.70;60.70
33139;DHT22;19501;50.948;5.316;2023-04-03T14:15:46;18.40;64.50
33139;DHT22;19501;50.948;5.316;2023-04-03T14:18:16;18.50;63.30
33139;DHT22;19501;50.948;5.316;2023-04-03T14:20:44;17.20;62.20
33139;DHT22;19501;50.948;5.316;2023-04-03T14:23:10;17.30;63.20
33139;DHT22;19501;50.948;5.316;2023-04-03T14:25:37;16.60;62.30
33139;DHT22;19501;50.948;5.316;2023-04-03T14:28:16;16.10;63.00
33139;DHT22;19501;50.948;5.316;2023-04-03T14:30:42;16.20;64.10
33139;DHT22;19501;50.948;5.316;2023-04-03T14:33:14;16.10;66.20
33139;DHT22;19501;50.948;5.316;2023-04-03T14:35:41;16.70;65.30
33139;DHT22;19501;50.948;5.316;2023-04-03T14:40:50;16.60;64.20
33139;DHT22;19501;50.948;5.316;2023-04-03T14:43:16;16.50;64.10
33139;DHT22;19501;50.948;5.316;2023-04-03T14:45:43;17.00;66.60
33139;DHT22;19501;50.948;5.316;2023-04-03T14:48:21;17.70;64.40
33139;DHT22;19501;50.948;5.316;2023-04-03T14:50:49;17.90;65.20
33139;DHT22;19501;50.948;5.316;2023-04-03T14:53:15;17.00;65.90
33139;DHT22;19501;50.948;5.316;2023-04-03T14:55:44;17.30;67.00
33139;DHT22;19501;50.948;5.316;2023-04-03T14:58:15;17.80;64.60
33139;DHT22;19501;50.948;5.316;2023-04-03T15:00:42;17.50;63.90
33139;DHT22;19501;50.948;5.316;2023-04-03T15:03:21;16.60;67.00
33139;DHT22;19501;50.948;5.316;2023-04-03T15:05:49;16.90;67.40
33139;DHT22;19501;50.948;5.316;2023-04-03T15:08:26;17.00;68.10
33139;DHT22;19501;50.948;5.316;2023-04-03T15:10:57;16.80;65.40
33139;DHT22;19501;50.948;5.316;2023-04-03T15:13:24;16.70;66.40
33139;DHT22;19501;50.948;5.316;2023-04-03T15:15:51;16.30;66.00
33139;DHT22;19501;50.948;5.316;2023-04-03T15:18:20;16.00;66.50
33139;DHT22;19501;50.948;5.316;2023-04-03T15:20:47;15.60;66.70
33139;DHT22;19501;50.948;5.316;2023-04-03T15:23:14;15.40;66.10
33139;DHT22;19501;50.948;5.316;2023-04-03T15:25:44;15.30;66.50
33139;DHT22;19501;50.948;5.316;2023-04-03T15:28:32;15.10;67.40
33139;DHT22;19501;50.948;5.316;2023-04-03T15:30:58;15.00;67.90
33139;DHT22;19501;50.948;5.316;2023-04-03T15:33:24;14.40;67.60
33139;DHT22;19501;50.948;5.316;2023-04-03T15:35:50;14.50;67.50
33139;DHT22;19501;50.948;5.316;2023-04-03T15:38:16;14.60;67.30
33139;DHT22;19501;50.948;5.316;2023-04-03T15:40:42;14.30;67.70
33139;DHT22;19501;50.948;5.316;2023-04-03T15:43:09;14.10;69.50
33139;DHT22;19501;50.948;5.316;2023-04-03T15:45:36;14.60;68.60
33139;DHT22;19501;50.948;5.316;2023-04-03T15:48:05;15.10;68.20
33139;DHT22;19501;50.948;5.316;2023-04-03T15:50:33;14.90;66.70
33139;DHT22;19501;50.948;5.316;2023-04-03T15:52:59;14.70;67.80
33139;DHT22;19501;50.948;5.316;2023-04-03T15:55:30;14.30;66.90
33139;DHT22;19501;50.948;5.316;2023-04-03T15:57:56;14.50;68.50
33139;DHT22;19501;50.948;5.316;2023-04-03T16:00:23;14.60;67.10
33139;DHT22;19501;50.948;5.316;2023-04-03T16:02:52;15.00;69.40
33139;DHT22;19501;50.948;5.316;2023-04-03T16:05:18;15.00;65.70
33139;DHT22;19501;50.948;5.316;2023-04-03T16:07:44;14.60;67.70
33139;DHT22;19501;50.948;5.316;2023-04-03T16:10:11;14.70;68.10
33139;DHT22;19501;50.948;5.316;2023-04-03T16:12:36;14.60;67.70
33139;DHT22;19501;50.948;5.316;2023-04-03T16:15:03;14.50;66.30
33139;DHT22;19501;50.948;5.316;2023-04-03T16:17:29;14.20;68.70
33139;DHT22;19501;50.948;5.316;2023-04-03T16:19:55;13.90;66.20
33139;DHT22;19501;50.948;5.316;2023-04-03T16:22:22;13.50;65.40
33139;DHT22;19501;50.948;5.316;2023-04-03T16:24:49;13.30;66.90
33139;DHT22;19501;50.948;5.316;2023-04-03T16:27:15;13.40;68.70
33139;DHT22;19501;50.948;5.316;2023-04-03T16:29:41;13.30;68.60
33139;DHT22;19501;50.948;5.316;2023-04-03T16:32:06;13.40;68.20
33139;DHT22;19501;50.948;5.316;2023-04-03T16:34:34;13.20;66.90
33139;DHT22;19501;50.948;5.316;2023-04-03T16:37:00;13.10;66.10
33139;DHT22;19501;50.948;5.316;2023-04-03T16:39:26;13.00;67.80
33139;DHT22;19501;50.948;5.316;2023-04-03T16:41:51;12.90;68.40
33139;DHT22;19501;50.948;5.316;2023-04-03T16:44:17;12.90;68.90
33139;DHT22;19501;50.948;5.316;2023-04-03T16:46:43;13.10;68.60
33139;DHT22;19501;50.948;5.316;2023-04-03T16:49:09;12.90;67.00
33139;DHT22;19501;50.948;5.316;2023-04-03T16:51:34;12.90;69.20
33139;DHT22;19501;50.948;5.316;2023-04-03T16:54:00;13.40;68.00
33139;DHT22;19501;50.948;5.316;2023-04-03T16:56:28;13.50;68.10
33139;DHT22;19501;50.948;5.316;2023-04-03T16:58:54;13.50;67.30
33139;DHT22;19501;50.948;5.316;2023-04-03T17:01:21;13.60;66.60
33139;DHT22;19501;50.948;5.316;2023-04-03T17:03:47;13.20;66.80
33139;DHT22;19501;50.948;5.316;2023-04-03T17:06:17;12.50;67.00
33139;DHT22;19501;50.948;5.316;2023-04-03T17:08:44;12.20;68.50
33139;DHT22;19501;50.948;5.316;2023-04-03T17:11:10;12.00;69.00
33139;DHT22;19501;50.948;5.316;2023-04-03T17:13:36;11.80;69.20
33139;DHT22;19501;50.948;5.316;2023-04-03T17:16:06;11.60;69.80
33139;DHT22;19501;50.948;5.316;2023-04-03T17:18:33;11.70;70.50
33139;DHT22;19501;50.948;5.316;2023-04-03T17:21:00;11.60;72.80
33139;DHT22;19501;50.948;5.316;2023-04-03T17:23:27;11.60;70.40
33139;DHT22;19501;50.948;5.316;2023-04-03T17:25:54;11.40;72.10
33139;DHT22;19501;50.948;5.316;2023-04-03T17:28:21;11.20;71.50
33139;DHT22;19501;50.948;5.316;2023-04-03T17:30:52;10.90;71.90
33139;DHT22;19501;50.948;5.316;2023-04-03T17:33:18;10.70;72.80
33139;DHT22;19501;50.948;5.316;2023-04-03T17:35:44;10.70;74.60
33139;DHT22;19501;50.948;5.316;2023-04-03T17:38:12;10.80;75.50
33139;DHT22;19501;50.948;5.316;2023-04-03T17:40:37;10.70;73.70
33139;DHT22;19501;50.948;5.316;2023-04-03T17:43:03;10.60;74.10
33139;DHT22;19501;50.948;5.316;2023-04-03T17:45:29;10.40;72.40
33139;DHT22;19501;50.948;5.316;2023-04-03T17:47:55;10.30;73.80
33139;DHT22;19501;50.948;5.316;2023-04-03T17:50:20;10.10;73.20
33139;DHT22;19501;50.948;5.316;2023-04-03T17:52:46;10.00;74.10
33139;DHT22;19501;50.948;5.316;2023-04-03T17:55:12;9.90;74.40
33139;DHT22;19501;50.948;5.316;2023-04-03T17:57:39;9.90;74.60
33139;DHT22;19501;50.948;5.316;2023-04-03T18:00:06;9.90;75.30